KPDT/PDT METAR and TAF weather

Enter ICAO airport designator
Station Type Date Time Source
KPDT METAR 2019/12/08 16:53 UTC NOAA

KPDT 081653Z 10004KT 3SM BR OVC007 03/02 A2999 RMK AO2 RAB08E27 SLP162 P0000 T00330017


Station Type Date Time Source
KPDT Decoded METAR 2019/12/08 16:53 UTC NOAA

PENDLETON MUNICIPAL AIRPORT, OR, United States (KPDT) 45-70N 118-83W 458M
Dec 08, 2019 - 11:53 AM EST / 2019.12.08 1653 UTC
Wind: from the E (100 degrees) at 5 MPH (4 KT):0
Visibility: 3 mile(s):0
Sky conditions: overcast
Weather: mist
Precipitation last hour: A trace
Temperature: 37.9 F (3.3 C)
Dew Point: 35.1 F (1.7 C)
Relative Humidity: 89%
Pressure (altimeter): 29.99 in. Hg (1015 hPa)
ob: KPDT 081653Z 10004KT 3SM BR OVC007 03/02 A2999 RMK AO2 RAB08E27 SLP162 P0000 T00330017
cycle: 17

Station Type Date Time Source
KPDT TAF 2019/12/08 15:51 UTC NOAA

TAF
AMD KPDT 081449Z 0815/0912 VRB03KT 1/2SM FG VV002
TEMPO 0815/0817 2SM BR SCT002 OVC026
FM082000 28005KT 5SM BR OVC007
FM090300 14003KT 3SM BR OVC004
FM090400 14003KT 1/4SM FG VV002

Example: see airport list